Time;durP1;ratioP1;P1;durP2;ratioP2;P2;SDS_P1;SDS_P2;PMS_P1;PMS_P2;Temp;Humidity;BMP_temperature;BMP_pressure;BME280_temperature;BME280_humidity;BME280_pressure;Samples;Min_cycle;Max_cycle;Signal;HPM_P1;HPM_P2
2021/03/17 00:02:13;;;;;;;5.50;4.60;;;6.70;99.90;;;;;;5072320;28;20302;-66
2021/03/17 00:04:39;;;;;;;6.10;4.57;;;6.80;99.90;;;;;;5071862;28;20627;-64
2021/03/17 00:07:05;;;;;;;4.97;3.73;;;6.90;99.90;;;;;;5072302;28;20580;-63
2021/03/17 00:09:32;;;;;;;5.73;4.73;;;7.00;99.90;;;;;;5072409;28;20209;-63
2021/03/17 00:11:59;;;;;;;5.80;4.40;;;7.10;99.90;;;;;;5072582;28;20228;-62
2021/03/17 00:14:25;;;;;;;4.67;4.20;;;7.20;99.90;;;;;;5072458;28;20239;-63
2021/03/17 00:16:51;;;;;;;5.43;4.13;;;7.20;99.90;;;;;;5072206;28;20209;-62
2021/03/17 00:19:17;;;;;;;4.53;4.13;;;7.30;99.90;;;;;;5072004;28;20209;-64
2021/03/17 00:21:44;;;;;;;6.20;4.50;;;7.30;99.90;;;;;;5072693;28;20244;-63
2021/03/17 00:24:10;;;;;;;7.10;4.57;;;7.30;99.90;;;;;;5072569;28;20205;-62
2021/03/17 00:26:38;;;;;;;5.83;4.23;;;7.30;99.90;;;;;;5072575;28;20215;-63
2021/03/17 00:29:04;;;;;;;5.27;4.43;;;7.40;99.90;;;;;;5072582;28;20224;-62
2021/03/17 00:31:30;;;;;;;4.73;4.10;;;7.40;99.90;;;;;;5072169;28;20260;-63
2021/03/17 00:33:57;;;;;;;6.30;4.53;;;7.30;99.90;;;;;;5072456;28;20225;-63
2021/03/17 00:36:23;;;;;;;8.20;5.53;;;7.30;99.90;;;;;;5072415;28;20208;-63
2021/03/17 00:38:50;;;;;;;6.17;4.87;;;7.40;99.90;;;;;;5072042;28;20205;-63
2021/03/17 00:41:16;;;;;;;6.53;4.70;;;7.40;99.90;;;;;;5072535;28;20255;-63
2021/03/17 00:43:43;;;;;;;4.53;4.13;;;7.50;99.90;;;;;;5075954;28;20601;-63
2021/03/17 00:46:10;;;;;;;5.30;4.53;;;7.50;99.90;;;;;;5076540;28;20200;-63
2021/03/17 00:48:36;;;;;;;6.40;4.83;;;7.40;99.90;;;;;;5076679;28;20205;-63
2021/03/17 00:51:02;;;;;;;5.30;4.63;;;7.40;99.90;;;;;;5076502;28;20624;-63
2021/03/17 00:53:30;;;;;;;5.07;4.57;;;7.40;99.90;;;;;;5076370;28;20231;-63
2021/03/17 00:55:56;;;;;;;7.80;4.90;;;7.40;99.90;;;;;;5076908;28;20213;-62
2021/03/17 00:58:22;;;;;;;4.70;4.27;;;7.40;99.90;;;;;;5079059;28;20208;-63
2021/03/17 01:00:49;;;;;;;5.60;4.67;;;7.50;99.90;;;;;;5077496;28;20220;-63
2021/03/17 01:03:16;;;;;;;6.83;4.77;;;7.50;99.90;;;;;;5076701;28;20201;-63
2021/03/17 01:05:42;;;;;;;8.60;5.60;;;7.50;99.90;;;;;;5076255;28;20201;-62
2021/03/17 01:08:08;;;;;;;6.17;5.03;;;7.50;99.90;;;;;;5076338;28;20261;-63
2021/03/17 01:10:37;;;;;;;5.00;4.57;;;7.50;99.90;;;;;;5079872;28;20212;-63
2021/03/17 01:13:04;;;;;;;7.87;5.30;;;7.50;99.90;;;;;;5077839;28;20212;-62
2021/03/17 01:15:31;;;;;;;5.67;5.13;;;7.50;99.90;;;;;;5076561;28;20216;-63
2021/03/17 01:17:59;;;;;;;5.33;4.83;;;7.60;99.90;;;;;;5076368;28;20295;-64
2021/03/17 01:20:29;;;;;;;5.67;5.07;;;7.50;99.90;;;;;;5076392;28;20201;-63
2021/03/17 01:22:56;;;;;;;5.90;4.77;;;7.50;99.90;;;;;;5075570;28;20316;-63
2021/03/17 01:25:30;;;;;;;5.47;4.93;;;7.60;99.90;;;;;;5075892;28;20665;-63
2021/03/17 01:27:57;;;;;;;5.30;4.80;;;7.60;99.90;;;;;;5075836;28;20210;-63
2021/03/17 01:30:26;;;;;;;6.67;5.23;;;7.60;99.90;;;;;;5076588;28;20575;-63
2021/03/17 01:32:52;;;;;;;7.03;4.70;;;7.60;99.90;;;;;;5075462;28;20245;-63
2021/03/17 01:35:20;;;;;;;6.00;5.20;;;7.50;99.90;;;;;;5075408;28;20211;-64
2021/03/17 01:37:47;;;;;;;8.03;5.40;;;7.50;99.90;;;;;;5075356;28;20208;-64
2021/03/17 01:40:14;;;;;;;6.40;4.87;;;7.50;99.90;;;;;;5076841;28;20228;-64
2021/03/17 01:42:41;;;;;;;5.70;5.00;;;7.50;99.90;;;;;;5075690;28;20229;-64
2021/03/17 01:45:10;;;;;;;6.53;4.73;;;7.50;99.90;;;;;;5076463;28;20292;-64
2021/03/17 01:47:37;;;;;;;5.23;4.60;;;7.50;99.90;;;;;;5075882;28;20564;-64
2021/03/17 01:50:08;;;;;;;6.20;5.23;;;7.50;99.90;;;;;;5076568;28;20212;-64
2021/03/17 01:52:35;;;;;;;5.60;4.97;;;7.50;99.90;;;;;;5074311;28;20235;-64
2021/03/17 01:55:02;;;;;;;5.40;4.87;;;7.40;99.90;;;;;;5073619;28;20224;-64
2021/03/17 01:57:28;;;;;;;5.60;5.00;;;7.40;99.90;;;;;;5074144;28;20197;-64
2021/03/17 01:59:54;;;;;;;5.60;5.00;;;7.40;99.90;;;;;;5074363;28;20209;-64
2021/03/17 02:02:21;;;;;;;5.37;4.87;;;7.30;99.90;;;;;;5074360;28;20236;-64
2021/03/17 02:04:47;;;;;;;5.20;4.70;;;7.30;99.90;;;;;;5074540;28;20242;-64
2021/03/17 02:07:13;;;;;;;5.30;4.53;;;7.20;99.90;;;;;;5074422;28;20241;-63
2021/03/17 02:09:41;;;;;;;5.07;4.53;;;7.20;99.90;;;;;;5074062;28;20200;-64
2021/03/17 02:12:21;;;;;;;5.40;4.77;;;7.20;99.90;;;;;;5074289;28;20221;-65
2021/03/17 02:14:58;;;;;;;5.10;4.60;;;7.20;99.90;;;;;;5073942;28;20228;-64
2021/03/17 02:17:27;;;;;;;5.03;4.53;;;7.20;99.90;;;;;;5073956;28;20216;-64
2021/03/17 02:20:23;;;;;;;5.70;5.07;;;7.10;99.90;;;;;;5073517;28;20205;-64
2021/03/17 02:22:53;;;;;;;6.50;4.90;;;7.10;99.90;;;;;;5073776;28;20221;-64
2021/03/17 02:25:48;;;;;;;5.87;5.00;;;7.10;99.90;;;;;;5073421;28;20669;-64
2021/03/17 02:28:25;;;;;;;5.67;4.93;;;7.10;99.90;;;;;;5073395;28;20715;-64
2021/03/17 02:31:28;;;;;;;5.30;4.63;;;7.20;99.90;;;;;;5073687;28;20208;-64
2021/03/17 02:33:58;;;;;;;6.17;5.33;;;7.20;99.90;;;;;;5073409;28;20229;-64
2021/03/17 02:36:30;;;;;;;5.83;5.23;;;7.20;99.90;;;;;;5073564;28;20254;-64
2021/03/17 02:39:04;;;;;;;5.30;4.80;;;7.20;99.90;;;;;;5073336;28;20661;-64
2021/03/17 02:41:37;;;;;;;5.70;5.17;;;7.20;99.90;;;;;;5073481;28;20258;-64
2021/03/17 02:44:10;;;;;;;6.23;5.43;;;7.10;99.90;;;;;;5073330;28;20204;-64
2021/03/17 02:46:39;;;;;;;5.77;5.17;;;7.10;99.90;;;;;;5073459;28;20208;-64
2021/03/17 02:49:10;;;;;;;5.30;4.80;;;7.10;99.90;;;;;;5074464;28;20205;-63
2021/03/17 02:51:39;;;;;;;6.57;5.77;;;7.10;99.90;;;;;;5074352;28;20225;-63
2021/03/17 02:54:09;;;;;;;5.93;5.33;;;7.10;99.90;;;;;;5073442;28;20244;-63
2021/03/17 02:56:39;;;;;;;5.90;5.20;;;7.10;99.90;;;;;;5072953;28;20305;-63
2021/03/17 02:59:08;;;;;;;5.93;5.27;;;7.10;99.90;;;;;;5072691;28;20209;-63
2021/03/17 03:01:34;;;;;;;6.17;5.57;;;7.10;99.90;;;;;;5094796;23;20237;-59
2021/03/17 03:04:05;;;;;;;6.17;5.47;;;7.10;99.90;;;;;;5052593;28;20567;-60
2021/03/17 03:06:33;;;;;;;6.17;5.57;;;7.10;99.90;;;;;;5052226;28;20205;-59
2021/03/17 03:09:01;;;;;;;6.20;5.60;;;7.20;99.90;;;;;;5052494;28;20866;-59
2021/03/17 03:11:28;;;;;;;6.47;5.40;;;7.20;99.90;;;;;;5053156;28;20672;-60
2021/03/17 03:13:54;;;;;;;6.17;5.57;;;7.20;99.90;;;;;;5071961;28;20233;-60
2021/03/17 03:16:23;;;;;;;5.90;5.30;;;7.20;99.90;;;;;;5072062;28;20209;-60
2021/03/17 03:18:52;;;;;;;6.57;5.70;;;7.20;99.90;;;;;;5072310;28;20208;-60
2021/03/17 03:21:21;;;;;;;6.60;5.90;;;7.20;99.90;;;;;;5072050;28;20212;-60
2021/03/17 03:23:49;;;;;;;7.10;6.07;;;7.20;99.90;;;;;;5071657;28;20727;-60
2021/03/17 03:26:17;;;;;;;6.43;5.70;;;7.20;99.90;;;;;;5071985;28;20216;-60
2021/03/17 03:28:45;;;;;;;6.13;5.53;;;7.30;99.90;;;;;;5071829;28;20209;-60
2021/03/17 03:31:12;;;;;;;6.70;6.10;;;7.30;99.90;;;;;;5071552;28;20582;-59
2021/03/17 03:33:38;;;;;;;8.13;6.57;;;7.40;99.90;;;;;;5071657;28;20232;-60
2021/03/17 03:36:05;;;;;;;6.47;5.63;;;7.30;99.90;;;;;;5072098;28;20209;-60
2021/03/17 03:38:31;;;;;;;7.07;6.37;;;7.10;99.90;;;;;;5071698;28;20212;-60
2021/03/17 03:40:59;;;;;;;7.40;6.03;;;7.00;99.90;;;;;;5071780;28;20282;-60
2021/03/17 03:43:26;;;;;;;9.07;6.03;;;6.90;99.90;;;;;;5071279;28;20217;-60
2021/03/17 03:45:52;;;;;;;7.03;6.27;;;6.90;99.90;;;;;;5071710;28;20209;-60
2021/03/17 03:48:18;;;;;;;6.40;5.80;;;7.00;99.90;;;;;;5071470;28;20208;-60
2021/03/17 03:50:48;;;;;;;6.63;5.93;;;7.00;99.90;;;;;;5071361;28;20204;-60
2021/03/17 03:53:37;;;;;;;6.40;5.80;;;7.10;99.90;;;;;;5071345;28;20220;-59
2021/03/17 03:56:06;;;;;;;6.40;5.80;;;7.20;99.90;;;;;;5071605;28;20193;-59
2021/03/17 03:58:38;;;;;;;6.83;6.13;;;7.20;99.90;;;;;;5071417;28;20399;-60
2021/03/17 04:01:08;;;;;;;6.47;5.87;;;7.30;99.90;;;;;;5071209;28;20712;-60
2021/03/17 04:03:37;;;;;;;6.97;6.07;;;7.30;99.90;;;;;;5071197;28;20232;-61
2021/03/17 04:06:05;;;;;;;7.23;6.30;;;7.40;99.90;;;;;;5071095;28;20737;-61
2021/03/17 04:08:33;;;;;;;6.27;5.67;;;7.40;99.90;;;;;;5071375;28;20259;-58
2021/03/17 04:11:01;;;;;;;6.70;6.00;;;7.40;99.90;;;;;;5071460;28;20377;-60
2021/03/17 04:13:31;;;;;;;7.13;6.40;;;7.30;99.90;;;;;;5071224;28;20235;-61
2021/03/17 04:15:59;;;;;;;6.37;5.77;;;7.40;99.90;;;;;;5070932;28;20193;-60
2021/03/17 04:18:30;;;;;;;6.70;5.83;;;7.30;99.90;;;;;;5071456;28;20474;-60
2021/03/17 04:21:01;;;;;;;8.10;6.67;;;7.30;99.90;;;;;;5071794;28;20193;-61
2021/03/17 04:23:28;;;;;;;6.67;6.07;;;7.30;99.90;;;;;;5071340;28;20220;-60
2021/03/17 04:25:55;;;;;;;8.07;6.30;;;7.30;99.90;;;;;;5071302;28;20211;-60
2021/03/17 04:28:25;;;;;;;7.83;6.37;;;7.30;99.90;;;;;;5071171;28;20232;-61
2021/03/17 04:30:59;;;;;;;7.70;6.83;;;7.40;99.90;;;;;;5070806;28;20569;-60
2021/03/17 04:33:26;;;;;;;8.77;7.30;;;7.30;99.90;;;;;;5070654;28;20707;-61
2021/03/17 04:35:54;;;;;;;7.87;6.90;;;7.30;99.90;;;;;;5070913;28;20205;-61
2021/03/17 04:38:23;;;;;;;8.43;7.47;;;7.40;99.90;;;;;;5071120;28;20212;-61
2021/03/17 04:40:49;;;;;;;9.30;7.87;;;7.20;99.90;;;;;;5070854;28;20232;-61
2021/03/17 04:43:17;;;;;;;8.53;7.63;;;7.00;99.90;;;;;;5071062;28;20731;-60
2021/03/17 04:45:44;;;;;;;9.83;8.60;;;6.80;99.90;;;;;;5070758;28;20231;-59
2021/03/17 04:48:11;;;;;;;10.73;8.50;;;6.60;99.90;;;;;;5070918;28;20669;-59
2021/03/17 04:50:39;;;;;;;9.43;8.43;;;6.60;99.90;;;;;;5071033;28;20224;-59
2021/03/17 04:53:08;;;;;;;9.43;7.87;;;6.70;99.90;;;;;;5070881;28;20231;-59
2021/03/17 04:55:34;;;;;;;9.00;8.10;;;6.70;99.90;;;;;;5070800;28;20228;-61
2021/03/17 04:58:02;;;;;;;8.83;7.93;;;6.70;99.90;;;;;;5071013;28;20208;-61
2021/03/17 05:00:29;;;;;;;10.93;9.73;;;6.70;99.90;;;;;;5070725;28;20230;-60
2021/03/17 05:02:58;;;;;;;10.70;9.60;;;6.70;99.90;;;;;;5070857;28;20228;-60
2021/03/17 05:05:28;;;;;;;11.10;9.80;;;6.70;99.90;;;;;;5070895;28;20205;-60
2021/03/17 05:07:54;;;;;;;11.73;10.47;;;6.70;99.90;;;;;;5070397;28;20255;-60
2021/03/17 05:10:22;;;;;;;12.30;10.47;;;6.70;99.90;;;;;;5070410;28;20205;-60
2021/03/17 05:12:49;;;;;;;13.73;12.33;;;6.70;99.90;;;;;;5070289;28;20584;-60
2021/03/17 05:15:16;;;;;;;11.43;10.17;;;6.80;99.90;;;;;;5070504;28;20225;-61
2021/03/17 05:17:46;;;;;;;10.93;9.83;;;6.80;99.90;;;;;;5070356;28;20672;-61
2021/03/17 05:20:16;;;;;;;12.07;9.07;;;6.90;99.90;;;;;;5070691;28;20209;-61
2021/03/17 05:22:44;;;;;;;10.53;9.43;;;6.90;99.90;;;;;;5070342;28;20283;-61
2021/03/17 05:25:12;;;;;;;10.43;8.97;;;6.90;99.90;;;;;;5070399;28;20276;-61
2021/03/17 05:27:39;;;;;;;9.77;8.77;;;6.90;99.90;;;;;;5070886;28;20209;-61
2021/03/17 05:30:08;;;;;;;10.43;9.33;;;6.90;99.90;;;;;;5074439;28;20205;-61
2021/03/17 05:32:35;;;;;;;14.50;11.17;;;6.80;99.90;;;;;;5074085;28;20229;-61
2021/03/17 05:35:06;;;;;;;11.00;9.47;;;6.80;99.90;;;;;;5074072;28;20225;-61
2021/03/17 05:37:33;;;;;;;10.57;9.47;;;6.80;99.90;;;;;;5074272;28;20211;-61
2021/03/17 05:40:00;;;;;;;12.87;10.23;;;6.80;99.90;;;;;;5073967;28;20205;-61
2021/03/17 05:42:27;;;;;;;11.53;10.30;;;6.70;99.90;;;;;;5074226;28;20254;-60
2021/03/17 05:44:55;;;;;;;10.43;9.33;;;6.70;99.90;;;;;;5073907;28;20687;-61
2021/03/17 05:47:23;;;;;;;12.17;9.97;;;6.60;99.90;;;;;;5073758;28;20209;-61
2021/03/17 05:49:49;;;;;;;11.33;10.13;;;6.50;99.90;;;;;;5073851;28;20258;-61
2021/03/17 05:52:17;;;;;;;10.77;9.67;;;6.50;99.90;;;;;;5073470;28;20229;-61
2021/03/17 05:54:44;;;;;;;11.87;9.77;;;6.50;99.90;;;;;;5073426;28;20229;-61
2021/03/17 05:57:14;;;;;;;11.93;9.80;;;6.50;99.90;;;;;;5073803;28;20212;-61
2021/03/17 05:59:40;;;;;;;11.53;10.33;;;6.40;99.90;;;;;;5073645;28;20212;-61
2021/03/17 06:02:08;;;;;;;10.57;9.47;;;6.30;99.90;;;;;;5073113;28;20243;-61
2021/03/17 06:04:37;;;;;;;12.30;10.20;;;6.30;99.90;;;;;;5073354;28;20212;-60
2021/03/17 06:07:10;;;;;;;9.80;8.80;;;6.10;99.90;;;;;;5073395;28;20212;-61
2021/03/17 06:09:37;;;;;;;9.80;8.80;;;6.20;99.90;;;;;;5073366;28;20603;-61
2021/03/17 06:12:08;;;;;;;9.40;8.40;;;6.20;99.90;;;;;;5072945;28;20221;-61
2021/03/17 06:14:36;;;;;;;12.87;9.30;;;6.20;99.90;;;;;;5072878;28;20232;-60
2021/03/17 06:17:08;;;;;;;10.43;9.00;;;6.10;99.90;;;;;;5073231;28;20204;-60
2021/03/17 06:19:36;;;;;;;11.60;10.40;;;6.10;99.90;;;;;;5073009;28;20478;-60
2021/03/17 06:22:02;;;;;;;12.00;10.70;;;6.20;99.90;;;;;;5073024;28;20227;-60
2021/03/17 06:24:29;;;;;;;15.50;13.13;;;6.30;99.90;;;;;;5073093;28;20254;-60
2021/03/17 06:26:56;;;;;;;15.43;11.63;;;6.20;99.90;;;;;;5073042;28;20212;-60
2021/03/17 06:29:22;;;;;;;12.30;11.03;;;6.30;99.90;;;;;;5072796;28;20204;-60
2021/03/17 06:31:49;;;;;;;16.50;12.43;;;6.30;99.90;;;;;;5072733;28;20229;-61
2021/03/17 06:34:16;;;;;;;15.50;12.50;;;6.30;99.90;;;;;;5072685;28;20225;-61
2021/03/17 06:36:50;;;;;;;14.57;12.40;;;6.40;99.90;;;;;;5073122;28;20209;-61
2021/03/17 06:39:17;;;;;;;14.23;11.70;;;6.40;99.90;;;;;;5071582;28;20636;-60
2021/03/17 06:41:45;;;;;;;13.60;11.60;;;6.40;99.90;;;;;;5072478;28;20205;-61
2021/03/17 06:44:12;;;;;;;13.17;11.07;;;6.40;99.90;;;;;;5072832;28;20205;-60
2021/03/17 06:46:38;;;;;;;16.20;12.67;;;6.30;99.90;;;;;;5072824;28;20205;-61
2021/03/17 06:49:06;;;;;;;16.40;12.60;;;6.20;99.90;;;;;;5072801;28;20211;-61
2021/03/17 06:51:33;;;;;;;15.63;12.83;;;6.30;99.90;;;;;;5072373;28;20392;-61
2021/03/17 06:54:01;;;;;;;17.53;13.37;;;6.40;99.90;;;;;;5072313;28;20354;-61
2021/03/17 06:56:29;;;;;;;14.20;12.50;;;6.40;99.90;;;;;;5072389;28;20229;-61
2021/03/17 06:58:56;;;;;;;14.60;12.77;;;6.50;99.90;;;;;;5072208;28;20209;-61
2021/03/17 07:01:24;;;;;;;16.83;13.27;;;6.60;99.90;;;;;;5072327;28;20295;-61
2021/03/17 07:03:55;;;;;;;17.07;13.23;;;6.70;99.90;;;;;;5071973;28;20255;-61
2021/03/17 07:06:22;;;;;;;16.60;14.07;;;6.80;99.90;;;;;;5072123;28;20266;-61
2021/03/17 07:08:48;;;;;;;16.90;14.57;;;6.90;99.90;;;;;;5072211;28;20243;-57
2021/03/17 07:11:22;;;;;;;18.33;14.87;;;6.90;99.90;;;;;;5072751;28;20216;-56
2021/03/17 07:13:54;;;;;;;15.73;13.90;;;7.10;99.90;;;;;;5071874;28;20246;-59
2021/03/17 07:16:29;;;;;;;17.60;13.50;;;7.40;99.90;;;;;;5072238;28;20208;-58
2021/03/17 07:18:55;;;;;;;17.13;14.57;;;7.40;99.90;;;;;;5072020;28;20205;-59
2021/03/17 07:21:34;;;;;;;15.77;13.43;;;7.50;99.90;;;;;;5072055;28;20213;-58
2021/03/17 07:24:02;;;;;;;16.77;14.57;;;7.40;99.90;;;;;;5071517;28;20209;-59
2021/03/17 07:26:29;;;;;;;18.37;14.33;;;7.50;99.90;;;;;;5071568;28;20205;-62
2021/03/17 07:29:12;;;;;;;18.97;14.33;;;7.90;99.90;;;;;;5071718;28;20622;-61
2021/03/17 07:31:40;;;;;;;14.20;12.43;;;8.30;99.90;;;;;;5071688;28;20209;-62
2021/03/17 07:34:12;;;;;;;14.40;12.03;;;8.70;99.90;;;;;;5071625;28;20235;-62
2021/03/17 07:36:44;;;;;;;15.13;12.40;;;9.10;99.90;;;;;;5071791;28;20208;-63
2021/03/17 07:39:13;;;;;;;16.13;11.77;;;9.30;99.90;;;;;;5071561;28;20292;-62
2021/03/17 07:41:39;;;;;;;14.37;12.43;;;9.40;99.90;;;;;;5071777;28;20207;-61
2021/03/17 07:44:09;;;;;;;16.20;12.83;;;9.40;99.90;;;;;;5071364;28;20690;-61
2021/03/17 07:46:36;;;;;;;15.47;13.00;;;9.40;99.90;;;;;;5071564;28;20699;-62
2021/03/17 07:49:05;;;;;;;13.63;11.80;;;9.40;99.90;;;;;;5071382;28;20226;-62
2021/03/17 07:51:34;;;;;;;14.50;12.03;;;9.30;99.90;;;;;;5071392;28;20205;-62
2021/03/17 07:54:03;;;;;;;13.23;11.83;;;9.10;99.90;;;;;;5071396;28;20220;-62
2021/03/17 07:56:30;;;;;;;14.90;12.37;;;9.20;99.90;;;;;;5072183;28;20546;-62
2021/03/17 07:58:57;;;;;;;17.47;11.80;;;9.30;99.90;;;;;;5071483;28;20205;-63
2021/03/17 08:01:23;;;;;;;13.17;11.17;;;9.90;99.90;;;;;;5071258;28;20295;-63
2021/03/17 08:03:51;;;;;;;13.27;10.83;;;10.00;99.90;;;;;;5071093;28;20220;-63
2021/03/17 08:06:19;;;;;;;15.17;12.00;;;9.90;99.90;;;;;;5071341;28;20205;-62
2021/03/17 08:08:46;;;;;;;13.50;11.17;;;10.10;99.90;;;;;;5071174;28;20208;-61
2021/03/17 08:11:16;;;;;;;13.83;11.07;;;10.20;99.90;;;;;;5071532;28;20606;-63
2021/03/17 08:13:44;;;;;;;12.00;10.43;;;10.20;99.90;;;;;;5070809;28;20229;-63
2021/03/17 08:16:12;;;;;;;12.20;10.37;;;10.10;99.90;;;;;;5071100;28;20204;-63
2021/03/17 08:18:46;;;;;;;11.30;9.97;;;9.80;99.90;;;;;;5071001;28;20277;-63
2021/03/17 08:21:12;;;;;;;12.70;10.43;;;9.70;99.90;;;;;;5071106;28;20208;-63
2021/03/17 08:23:41;;;;;;;14.30;10.27;;;9.60;99.90;;;;;;5070883;28;20229;-63
2021/03/17 08:26:10;;;;;;;10.80;9.63;;;9.80;99.90;;;;;;5071300;28;20205;-63
2021/03/17 08:28:48;;;;;;;11.20;7.93;;;10.00;99.90;;;;;;5070794;28;20213;-63
2021/03/17 08:31:50;;;;;;;10.70;7.77;;;9.90;99.40;;;;;;5070852;28;20209;-62
2021/03/17 08:34:25;;;;;;;10.10;7.40;;;9.40;99.90;;;;;;5070572;28;20231;-63
2021/03/17 08:36:52;;;;;;;8.63;6.77;;;8.90;99.80;;;;;;5070777;28;20204;-63
2021/03/17 08:39:41;;;;;;;10.33;8.47;;;8.70;99.90;;;;;;5071008;28;20208;-64
2021/03/17 08:42:08;;;;;;;9.90;6.57;;;8.60;99.90;;;;;;5070692;28;20768;-63
2021/03/17 08:44:48;;;;;;;10.53;7.50;;;8.80;99.90;;;;;;5070652;28;20223;-64
2021/03/17 08:47:17;;;;;;;12.90;7.97;;;9.00;99.90;;;;;;5070810;28;20208;-64
2021/03/17 08:49:45;;;;;;;10.33;8.13;;;9.40;99.90;;;;;;5070494;28;20220;-63
2021/03/17 08:52:13;;;;;;;10.13;5.90;;;10.00;99.40;;;;;;5070608;28;20704;-65
2021/03/17 08:54:59;;;;;;;7.17;4.90;;;10.50;96.80;;;;;;5070667;28;20239;-63
2021/03/17 08:58:04;;;;;;;7.70;6.10;;;10.60;95.40;;;;;;5070661;28;20672;-64
2021/03/17 09:00:59;;;;;;;7.90;6.23;;;10.50;96.10;;;;;;5071664;28;20212;-62
2021/03/17 09:03:45;;;;;;;10.93;7.80;;;10.50;96.00;;;;;;5096758;22;20237;-65
2021/03/17 09:06:31;;;;;;;8.23;6.90;;;10.90;97.50;;;;;;5077418;28;20209;-63
2021/03/17 09:09:07;;;;;;;9.00;6.83;;;11.20;96.60;;;;;;5076405;28;20200;-63
2021/03/17 09:11:54;;;;;;;8.40;6.87;;;11.50;96.70;;;;;;5076478;28;20208;-63
2021/03/17 09:14:23;;;;;;;6.53;4.87;;;11.60;96.30;;;;;;5054691;28;20314;-64
2021/03/17 09:17:26;;;;;;;17.57;10.70;;;11.70;92.90;;;;;;5055175;28;20209;-63
2021/03/17 09:20:16;;;;;;;4.87;3.50;;;11.60;90.60;;;;;;5054991;28;20251;-63
2021/03/17 09:22:59;;;;;;;5.00;3.93;;;11.40;90.80;;;;;;5054499;28;20233;-63
2021/03/17 09:25:27;;;;;;;5.47;4.23;;;11.30;91.10;;;;;;5054385;28;20691;-65
2021/03/17 09:28:01;;;;;;;5.67;4.13;;;11.40;91.40;;;;;;5054364;28;20695;-65
2021/03/17 09:30:29;;;;;;;6.30;4.63;;;11.20;90.40;;;;;;5054677;28;20438;-64
2021/03/17 09:33:03;;;;;;;6.57;4.80;;;10.90;91.00;;;;;;5054345;28;20235;-64
2021/03/17 09:35:29;;;;;;;6.17;4.50;;;10.50;92.10;;;;;;5054160;28;20222;-63
2021/03/17 09:38:00;;;;;;;4.53;2.73;;;10.40;93.00;;;;;;5054117;28;20201;-63
2021/03/17 09:40:27;;;;;;;4.93;2.30;;;10.50;90.40;;;;;;5054294;28;20209;-62
2021/03/17 09:42:53;;;;;;;5.33;2.57;;;10.40;84.80;;;;;;5054013;28;20221;-64
2021/03/17 09:45:25;;;;;;;21.90;15.80;;;10.40;85.70;;;;;;5054104;28;20197;-63
2021/03/17 09:47:55;;;;;;;3.00;2.40;;;10.60;87.80;;;;;;5054234;28;20232;-64
2021/03/17 09:50:24;;;;;;;4.93;2.50;;;10.90;84.50;;;;;;5053687;28;20213;-63
2021/03/17 09:52:51;;;;;;;3.50;2.10;;;11.20;83.60;;;;;;5053378;28;20217;-64
2021/03/17 09:55:31;;;;;;;4.13;2.27;;;11.50;81.50;;;;;;5053643;28;20225;-65
2021/03/17 09:58:02;;;;;;;5.87;2.50;;;11.50;82.30;;;;;;5053802;28;20209;-64
2021/03/17 10:00:29;;;;;;;5.17;2.70;;;11.40;83.60;;;;;;5053273;28;20668;-63
2021/03/17 10:03:01;;;;;;;5.53;2.87;;;11.10;81.80;;;;;;5053414;28;20238;-63
2021/03/17 10:05:29;;;;;;;4.20;2.90;;;10.40;84.30;;;;;;5053313;28;20293;-64
2021/03/17 10:07:56;;;;;;;3.57;2.53;;;10.10;85.90;;;;;;5053378;28;20209;-64
2021/03/17 10:10:23;;;;;;;4.07;2.67;;;9.80;87.30;;;;;;5053340;28;20213;-66
2021/03/17 10:12:49;;;;;;;4.17;2.43;;;9.60;88.80;;;;;;5053069;28;20287;-65
2021/03/17 10:15:18;;;;;;;3.43;1.80;;;9.30;90.30;;;;;;5053397;28;20225;-64
2021/03/17 10:17:45;;;;;;;4.43;2.30;;;8.80;92.60;;;;;;5053371;28;20206;-65
2021/03/17 10:20:13;;;;;;;3.77;2.00;;;8.60;93.10;;;;;;5053228;28;20201;-63
2021/03/17 10:22:41;;;;;;;4.33;2.27;;;8.20;94.90;;;;;;5052976;28;20225;-64
2021/03/17 10:25:10;;;;;;;4.63;2.50;;;7.90;94.80;;;;;;5053617;28;20662;-64
2021/03/17 10:27:39;;;;;;;4.87;2.77;;;7.70;95.50;;;;;;5053200;28;20216;-64
2021/03/17 10:30:08;;;;;;;3.17;2.40;;;8.00;95.80;;;;;;5053280;28;20209;-65
2021/03/17 10:32:37;;;;;;;4.57;2.77;;;8.30;96.10;;;;;;5053413;28;20221;-64
2021/03/17 10:35:07;;;;;;;5.28;2.75;;;8.70;96.00;;;;;;5052569;28;20451;-63
2021/03/17 10:37:34;;;;;;;6.37;3.07;;;9.00;95.30;;;;;;5052993;28;20629;-62
2021/03/17 10:40:09;;;;;;;3.37;2.57;;;9.40;95.90;;;;;;5052792;28;20207;-61
2021/03/17 10:42:42;;;;;;;4.80;3.30;;;9.90;94.10;;;;;;5032184;28;20236;-63
2021/03/17 10:45:10;;;;;;;5.03;3.53;;;10.20;93.90;;;;;;5032560;28;20309;-63
2021/03/17 10:47:38;;;;;;;6.47;3.97;;;10.40;94.30;;;;;;5033220;28;20635;-64
2021/03/17 10:50:06;;;;;;;6.40;3.73;;;10.70;94.80;;;;;;5032798;28;20206;-64
2021/03/17 10:52:33;;;;;;;5.57;3.70;;;11.00;93.90;;;;;;5032194;28;20221;-65
2021/03/17 10:55:13;;;;;;;4.63;3.17;;;11.10;93.90;;;;;;5032558;28;20230;-64
2021/03/17 10:57:40;;;;;;;4.60;2.90;;;11.50;93.30;;;;;;5032577;28;20210;-64
2021/03/17 11:00:18;;;;;;;4.63;2.80;;;11.90;92.70;;;;;;5032557;28;20213;-63
2021/03/17 11:02:44;;;;;;;4.57;3.13;;;12.30;90.80;;;;;;5032102;28;20731;-64
2021/03/17 11:05:22;;;;;;;5.90;3.10;;;12.60;91.10;;;;;;5032045;28;20209;-64
2021/03/17 11:08:12;;;;;;;4.67;2.73;;;12.70;91.30;;;;;;5032784;28;20210;-63
2021/03/17 11:10:51;;;;;;;4.30;3.00;;;12.80;88.40;;;;;;5032222;28;20237;-63
2021/03/17 11:13:43;;;;;;;7.93;2.90;;;12.60;90.00;;;;;;5031945;28;20234;-63
2021/03/17 11:16:27;;;;;;;6.00;2.60;;;12.40;88.10;;;;;;5032378;28;20206;-64
2021/03/17 11:18:55;;;;;;;5.10;3.10;;;12.20;89.40;;;;;;5032250;28;20214;-66
2021/03/17 11:21:27;;;;;;;5.03;2.23;;;11.90;85.10;;;;;;5032445;28;20498;-66
2021/03/17 11:23:54;;;;;;;4.47;2.80;;;11.50;85.80;;;;;;5032332;28;20234;-66
2021/03/17 11:26:30;;;;;;;4.77;2.40;;;11.30;89.00;;;;;;5032026;28;20218;-63
2021/03/17 11:29:01;;;;;;;3.73;2.20;;;11.10;86.70;;;;;;5032236;28;20222;-65
2021/03/17 11:31:33;;;;;;;3.77;2.20;;;11.00;86.90;;;;;;5032411;28;20206;-65
2021/03/17 11:34:00;;;;;;;3.60;2.30;;;10.80;87.20;;;;;;5031771;28;20233;-65
2021/03/17 11:36:27;;;;;;;6.23;2.43;;;10.50;86.30;;;;;;5031833;28;20210;-63
2021/03/17 11:38:55;;;;;;;6.03;2.63;;;10.10;87.40;;;;;;5032296;28;20602;-64
2021/03/17 11:41:22;;;;;;;3.00;2.40;;;9.90;90.50;;;;;;5032224;28;20206;-63
2021/03/17 11:43:49;;;;;;;3.20;2.53;;;9.90;90.50;;;;;;5031916;28;20321;-64
2021/03/17 11:46:18;;;;;;;4.73;2.50;;;9.80;90.00;;;;;;5032667;28;20429;-64
2021/03/17 11:48:45;;;;;;;4.00;2.50;;;9.50;91.10;;;;;;5032104;28;20194;-64
2021/03/17 11:51:11;;;;;;;6.20;2.70;;;9.50;91.70;;;;;;5032618;28;20293;-66
2021/03/17 11:53:38;;;;;;;6.07;2.60;;;9.60;92.30;;;;;;5032210;28;20731;-65
2021/03/17 11:56:05;;;;;;;4.27;2.30;;;9.80;91.70;;;;;;5031800;28;20242;-64
2021/03/17 11:58:31;;;;;;;4.23;2.37;;;9.90;91.40;;;;;;5031843;28;20221;-65
2021/03/17 12:00:59;;;;;;;4.17;2.60;;;9.90;90.60;;;;;;5031824;28;20206;-64
2021/03/17 12:03:25;;;;;;;5.50;2.60;;;9.90;90.80;;;;;;5031214;28;20261;-65
2021/03/17 12:05:51;;;;;;;5.10;2.73;;;9.90;91.70;;;;;;5032182;28;20221;-64
2021/03/17 12:08:18;;;;;;;4.37;2.33;;;10.00;91.20;;;;;;5032026;28;20264;-65
2021/03/17 12:10:45;;;;;;;5.40;2.50;;;9.90;91.30;;;;;;5031790;28;20667;-63
2021/03/17 12:13:11;;;;;;;7.13;2.80;;;9.80;91.50;;;;;;5031389;28;20225;-63
2021/03/17 12:15:37;;;;;;;6.50;3.17;;;9.50;93.20;;;;;;5031250;28;20249;-63
2021/03/17 12:18:05;;;;;;;5.83;3.80;;;9.40;95.50;;;;;;5031044;28;20209;-63
2021/03/17 12:20:32;;;;;;;7.30;4.20;;;9.40;96.60;;;;;;5031449;28;20252;-62
2021/03/17 12:22:59;;;;;;;6.03;4.57;;;9.40;97.30;;;;;;5031252;28;20230;-63
2021/03/17 12:25:26;;;;;;;8.83;4.37;;;9.40;97.30;;;;;;5031260;28;20595;-66
2021/03/17 12:27:52;;;;;;;5.80;4.40;;;9.40;97.80;;;;;;5030992;28;20683;-63
2021/03/17 12:30:21;;;;;;;6.83;5.10;;;9.40;97.90;;;;;;5031372;28;20210;-63
2021/03/17 12:32:49;;;;;;;5.83;4.17;;;9.40;98.30;;;;;;5031272;28;20228;-64
2021/03/17 12:35:18;;;;;;;6.63;5.33;;;9.40;99.10;;;;;;5031185;28;20222;-64
2021/03/17 12:37:46;;;;;;;7.33;5.43;;;9.30;99.60;;;;;;5033736;28;20252;-63
2021/03/17 12:40:14;;;;;;;7.37;5.27;;;9.30;99.90;;;;;;5035658;28;20206;-64
2021/03/17 12:42:41;;;;;;;11.10;5.10;;;9.40;99.90;;;;;;5035749;28;20241;-64
2021/03/17 12:45:10;;;;;;;11.07;5.47;;;9.60;99.90;;;;;;5035885;28;20221;-65
2021/03/17 12:47:36;;;;;;;6.97;4.77;;;9.60;99.90;;;;;;5035789;28;20205;-63
2021/03/17 12:50:04;;;;;;;6.63;5.30;;;9.70;99.70;;;;;;5035832;28;20251;-62
2021/03/17 12:52:31;;;;;;;8.27;5.50;;;9.90;99.80;;;;;;5035435;28;20268;-65
2021/03/17 12:54:57;;;;;;;7.83;4.93;;;10.10;99.00;;;;;;5035097;28;20434;-64
2021/03/17 12:57:23;;;;;;;7.73;5.90;;;10.40;99.00;;;;;;5034985;28;20241;-65
2021/03/17 12:59:49;;;;;;;8.10;5.10;;;10.50;98.90;;;;;;5034763;28;20305;-63
2021/03/17 13:02:16;;;;;;;5.57;4.27;;;10.70;98.70;;;;;;5033402;28;20238;-61
2021/03/17 13:04:42;;;;;;;10.13;4.87;;;10.90;97.80;;;;;;5034593;28;20209;-61